• Join FlightAware (Why Join?)
  • Login
  • US Flag 
06:32AM EDT


 

Airport Tracker/Info


-or-


 

Live Flight TrackerFlight Track Log ✈ AVN21 ✈ 27-Oct-2013 ✈ YBBN / BNE - NVVV / VLI

Flight Track Log - Related Links

Times and Time Zones

All times are in EDT time to prevent confusion due to time zone crossing. See the AVN21 flight status page for this flight to view local times or setup timezone preferences in your user account.

Time Position Orientation Groundspeed Altitude Reporting Facility
EDT Latitude Longitude Course Direction KTS MPH feet Rate Location/Type
07:03AM -27.3961 153.1221 75° East 105 121  Level FlightAware ADS-B (EKCH / CPH)
07:03AM -27.3778 153.1325 27° Northeast 159 183 200 1,020 Climbing FlightAware ADS-B (EKCH / CPH)
07:04AM -27.3644 153.1403 27° Northeast 159 183 900 1,920 Climbing FlightAware ADS-B (EKCH / CPH)
07:04AM -27.3585 153.1452 36° Northeast 165 190 1,200 1,380 Climbing FlightAware ADS-B (EKCH / CPH)
07:04AM -27.3473 153.1570 43° Northeast 184 212 1,600 1,200 Climbing FlightAware ADS-B (EKCH / CPH)
07:04AM -27.3338 153.1710 43° Northeast 204 235 2,000 1,800 Climbing FlightAware ADS-B (EKCH / CPH)
07:05AM -27.3201 153.1873 47° Northeast 208 239 2,800 2,460 Climbing FlightAware ADS-B (EKCH / CPH)
07:05AM -27.3153 153.1964 59° Northeast 215 247 3,200 1,800 Climbing FlightAware ADS-B (EKCH / CPH)
07:05AM -27.3077 153.2187 69° East 237 273 3,700 1,260 Climbing FlightAware ADS-B (EKCH / CPH)
07:06AM -27.3020 153.2419 75° East 261 300 4,100 1,320 Climbing FlightAware ADS-B (EKCH / CPH)
07:06AM -27.2941 153.2712 73° East 281 323 4,600 1,200 Climbing FlightAware ADS-B (EKCH / CPH)
07:06AM -27.2859 153.3002 72° East 304 350 4,900 1,200 Climbing FlightAware ADS-B (EKCH / CPH)
07:07AM -27.2770 153.3314 72° East 319 367 5,400 1,740 Climbing FlightAware ADS-B (EKCH / CPH)
07:07AM -27.2678 153.3630 72° East 329 379 6,100 1,920 Climbing FlightAware ADS-B (EKCH / CPH)
07:07AM -27.2589 153.3940 72° East 339 390 6,700 2,100 Climbing FlightAware ADS-B (EKCH / CPH)
07:08AM -27.2486 153.4307 72° East 346 398 7,500 2,460 Climbing FlightAware ADS-B (EKCH / CPH)
07:08AM -27.2392 153.4640 72° East 350 403 8,300 2,700 Climbing FlightAware ADS-B (EKCH / CPH)
07:08AM -27.2295 153.4978 72° East 349 402 9,300 3,120 Climbing FlightAware ADS-B (EKCH / CPH)
07:09AM -27.2116 153.5495 69° East 344 396 11,000 3,240 Climbing FlightAware ADS-B (EKCH / CPH)
07:09AM -27.2078 153.5574 61° Northeast 345 397 11,200 2,400 Climbing FlightAware ADS-B (NZNE)
07:09AM -27.1805 153.6048 57° Northeast 356 410 12,400 2,280 Climbing FlightAware ADS-B (NZNE)
07:10AM -27.1482 153.6604 57° Northeast 379 436 13,700 2,160 Climbing FlightAware ADS-B (EKCH / CPH)
07:10AM -27.1220 153.7057 57° Northeast 395 455 14,800 2,400 Climbing FlightAware ADS-B (EKCH / CPH)
07:11AM -27.0826 153.7737 57° Northeast 411 473 16,300 2,520 Climbing FlightAware ADS-B (NZNE)
07:11AM -27.0506 153.8290 57° Northeast 419 482 17,600 2,820 Climbing FlightAware ADS-B (NZNE)
07:12AM -27.0190 153.8834 57° Northeast 416 479 19,200 2,700 Climbing FlightAware ADS-B (NZNE)
07:13AM -26.9830 153.9451 57° Northeast 424 488 20,500 2,220 Climbing FlightAware ADS-B (EKCH / CPH)
07:13AM -26.9526 153.9971 57° Northeast 434 499 21,600 2,100 Climbing FlightAware ADS-B (EKCH / CPH)
07:14AM -26.9170 154.0580 57° Northeast 443 510 22,600 1,800 Climbing FlightAware ADS-B (EKCH / CPH)
07:14AM -26.8828 154.1163 57° Northeast 457 526 23,400 1,680 Climbing FlightAware ADS-B (EKCH / CPH)
07:15AM -26.8356 154.1969 57° Northeast 469 540 24,600 1,680 Climbing FlightAware ADS-B (EKCH / CPH)
07:15AM -26.7998 154.2580 57° Northeast 477 549 25,400 1,560 Climbing FlightAware ADS-B (EKCH / CPH)
07:16AM -26.7634 154.3199 57° Northeast 485 558 26,200 1,800 Climbing FlightAware ADS-B (EKCH / CPH)
07:16AM -26.7274 154.3813 57° Northeast 485 558 27,200 1,680 Climbing FlightAware ADS-B (EKCH / CPH)
07:17AM -26.6893 154.4454 56° Northeast 494 568 27,900 1,080 Climbing FlightAware ADS-B (EKCH / CPH)
07:17AM -26.6497 154.5120 56° Northeast 509 586 28,300 900 Climbing FlightAware ADS-B (EKCH / CPH)
07:18AM -26.5977 154.5999 56° Northeast 522 601 29,000 1,200 Climbing FlightAware ADS-B (EKCH / CPH)
07:18AM -26.5578 154.6676 57° Northeast 527 606 29,700 1,320 Climbing FlightAware ADS-B (EKCH / CPH)
07:19AM -26.5166 154.7374 57° Northeast 531 611 30,400 1,080 Climbing FlightAware ADS-B (EKCH / CPH)
07:20AM -26.4636 154.8268 57° Northeast 542 624 31,000 1,200 Climbing FlightAware ADS-B (EKCH / CPH)
07:20AM -26.4180 154.9054 57° Northeast 539 620 31,900 1,380 Climbing Aus ATC (RADAR)
07:20AM -26.4083 154.9197 57° Northeast 545 627 31,900 780 Level FlightAware ADS-B (EKCH / CPH)
07:21AM -26.3652 154.9922 56° Northeast 550 633 32,400 1,320 Climbing FlightAware ADS-B (EKCH / CPH)
07:21AM -26.3192 155.0694 56° Northeast 546 628 33,300 1,200 Climbing Aus ATC (RADAR)
07:21AM -26.3114 155.0820 56° Northeast 552 635 33,200 960 Descending FlightAware ADS-B (EKCH / CPH)
07:22AM -26.2530 155.1794 56° Northeast 550 633 34,100 1,320 Climbing FlightAware ADS-B (EKCH / CPH)
07:23AM -26.2097 155.2514 56° Northeast 547 629 34,800 1,320 Climbing FlightAware ADS-B (EKCH / CPH)
07:23AM -26.1670 155.3225 56° Northeast 542 624 35,500 1,260 Climbing FlightAware ADS-B (EKCH / CPH)
07:24AM -26.1250 155.3921 56° Northeast 541 623 36,100 1,020 Climbing FlightAware ADS-B (EKCH / CPH)
07:24AM -26.0698 155.4844 56° Northeast 541 623 36,700 720 Climbing FlightAware ADS-B (EKCH / CPH)
07:25AM -26.0289 155.5528 56° Northeast 542 624 37,000 360 Climbing FlightAware ADS-B (EKCH / CPH)
07:25AM -25.9637 155.6613 56° Northeast 531 611 37,200  Climbing Aus ATC (RADAR)
07:26AM -25.9585 155.6693 56° Northeast 540 621 37,000 -300 Descending FlightAware ADS-B (EKCH / CPH)
07:26AM -25.9150 155.7410 56° Northeast 539 620 37,000  Level FlightAware
07:27AM -25.8531 155.8425 56° Northeast 538 619 37,000  Level FlightAware ADS-B (EKCH / CPH)
07:27AM -25.8067 155.9187 56° Northeast 537 618 37,000 180 Level FlightAware ADS-B (EKCH / CPH)
07:28AM -25.7615 155.9913 56° Northeast 528 608 37,200  Climbing Aus ATC (RADAR)
07:28AM -25.7393 156.0292 56° Northeast 537 618 37,000 -240 Descending FlightAware ADS-B (EKCH / CPH)
07:29AM -25.6990 156.0960 56° Northeast 536 617 37,000 240 Level FlightAware
07:29AM -25.6717 156.1402 56° Northeast 526 605 37,200  Climbing Aus ATC (RADAR)
07:29AM -25.6560 156.1660 56° Northeast 536 617 37,000 -240 Descending FlightAware
07:30AM -25.6140 156.2350 56° Northeast 536 617 37,000  Level FlightAware
07:31AM -25.5700 156.3070 56° Northeast 536 617 37,000  Level FlightAware
07:31AM -25.5420 156.3540 57° Northeast 536 617 37,000  Level FlightAware
07:32AM -25.4662 156.4983 57° Northeast 526 605 37,000  Level Aus ATC (RADAR)
07:32AM -25.4850 156.4460 57° Northeast 536 617 37,000  Level FlightAware
07:32AM -25.4570 156.4930 57° Northeast 536 617 37,000  Level FlightAware
07:33AM -25.3860 156.6090 57° Northeast 536 617 37,000  Level FlightAware
07:33AM -25.3230 156.7351 57° Northeast 521 600 37,000  Level Aus ATC (RADAR)
07:34AM -25.2722 156.8107 57° Northeast 520 598 37,000  Level Aus ATC (RADAR)
07:34AM -25.3300 156.7020 57° Northeast 536 617 37,000  Level FlightAware
07:35AM -25.2220 156.9037 57° Northeast 519 597 37,000  Level Aus ATC (RADAR)
07:35AM -25.2730 156.7950 57° Northeast 536 617 37,000  Level FlightAware
07:36AM -25.2170 156.8870 57° Northeast 536 617 37,000  Level FlightAware
07:36AM -25.1309 157.0458 57° Northeast 516 594 37,000  Level Aus ATC (RADAR)
07:36AM -25.1880 156.9340 57° Northeast 536 617 37,000  Level FlightAware
07:36AM -25.0852 157.1250 57° Northeast 515 593 37,000  Level Aus ATC (RADAR)
07:37AM -25.1450 157.0050 56° Northeast 536 617 37,000  Level FlightAware
07:37AM -24.9963 157.2849 56° Northeast 519 597 37,000  Level Aus ATC (RADAR)
07:37AM -25.0870 157.1000 56° Northeast 536 617 37,000  Level FlightAware
07:38AM -25.0450 157.1690 56° Northeast 536 617 37,000  Level FlightAware
07:38AM -25.0290 157.1940 55° Northeast 536 617 37,000  Level FlightAware
07:41AM -24.8714 157.4620 57° Northeast  Level FlightAware Approximate
07:41AM -24.6855 157.8017 240° Southwest 37,000  Level Aus ATC (Calculated)
07:42AM -24.8017 157.5800 57° Northeast  Level FlightAware Approximate
07:42AM -24.6204 157.9095 56° Northeast 37,000  Level Aus ATC (Calculated)
07:44AM -24.5273 158.0635 56° Northeast  Level FlightAware Approximate
07:45AM -24.4564 158.1803 56° Northeast  Level FlightAware Approximate
07:46AM -24.3854 158.2970 56° Northeast  Level FlightAware Approximate
07:47AM -24.3144 158.4135 56° Northeast  Level FlightAware Approximate
07:48AM -24.2432 158.5300 56° Northeast  Level FlightAware Approximate
07:49AM -24.1720 158.6463 56° Northeast  Level FlightAware Approximate
07:50AM -24.1007 158.7625 56° Northeast  Level FlightAware Approximate
07:51AM -24.0293 158.8785 56° Northeast  Level FlightAware Approximate
07:52AM -23.9578 158.9944 56° Northeast  Level FlightAware Approximate
07:53AM -23.8862 159.1102 56° Northeast  Level FlightAware Approximate
07:54AM -23.8146 159.2258 56° Northeast  Level FlightAware Approximate
07:55AM -23.7428 159.3414 56° Northeast  Level FlightAware Approximate
07:55AM -23.6258 159.5265 56° Northeast 37,000  Level Aus ATC (Calculated)
07:55AM -23.5568 159.6367 235° Southwest 37,000  Level Aus ATC (Calculated)
07:57AM -23.6555 159.4823 235° Southwest  Level FlightAware Approximate
07:58AM -23.5824 159.5968 55° Northeast  Level FlightAware Approximate
07:59AM -23.6555 159.4823 235° Southwest  Level FlightAware Approximate
08:00AM -23.6269 159.5275 56° Northeast  Level FlightAware Approximate
08:01AM -23.5548 159.6426 56° Northeast  Level FlightAware Approximate
08:02AM -23.4826 159.7576 56° Northeast  Level FlightAware Approximate
08:03AM -23.4104 159.8724 56° Northeast  Level FlightAware Approximate
08:04AM -23.3380 159.9871 56° Northeast  Level FlightAware Approximate
08:05AM -23.2656 160.1017 55° Northeast  Level FlightAware Approximate
08:05AM -22.7490 160.9103 235° Southwest 37,000  Level Aus ATC (Calculated)
08:06AM -23.1931 160.2162 55° Northeast  Level FlightAware Approximate
08:07AM -22.6516 161.0618 55° Northeast  Level FlightAware Approximate
08:08AM -22.5784 161.1752 55° Northeast  Level FlightAware Approximate
08:08AM -22.5370 161.2394 55° Northeast 37,000  Level Aus ATC (Calculated)
08:09AM -22.4637 161.3527 55° Northeast  Level FlightAware Approximate
08:10AM -22.3903 161.4659 55° Northeast  Level FlightAware Approximate
08:11AM -22.3169 161.5789 55° Northeast  Level FlightAware Approximate
08:12AM -22.2434 161.6919 55° Northeast  Level FlightAware Approximate
08:13AM -22.1698 161.8047 55° Northeast  Level FlightAware Approximate
08:14AM -22.0961 161.9174 55° Northeast  Level FlightAware Approximate
08:15AM -22.0224 162.0300 55° Northeast  Level FlightAware Approximate
08:16AM -21.9485 162.1424 55° Northeast  Level FlightAware Approximate
08:17AM -21.8746 162.2547 55° Northeast  Level FlightAware Approximate
08:18AM -21.8006 162.3670 55° Northeast  Level FlightAware Approximate
08:18AM -21.7076 162.5077 55° Northeast 37,000  Level Aus ATC (Calculated)
08:19AM -21.6335 162.6197 55° Northeast  Level FlightAware Approximate
08:20AM -21.5593 162.7315 55° Northeast  Level FlightAware Approximate
08:21AM -21.4850 162.8432 54° Northeast  Level FlightAware Approximate
08:22AM -21.4106 162.9549 54° Northeast  Level FlightAware Approximate
08:23AM -21.3361 163.0663 54° Northeast  Level FlightAware Approximate
08:24AM -21.4106 162.9549 234° Southwest  Level FlightAware Approximate
08:25AM -21.3361 163.0663 54° Northeast  Level FlightAware Approximate
08:26AM -21.4106 162.9549 234° Southwest  Level FlightAware Approximate
08:27AM -21.3361 163.0663 54° Northeast  Level FlightAware Approximate
08:28AM -21.4106 162.9549 234° Southwest  Level FlightAware Approximate
08:29AM -21.3361 163.0663 54° Northeast  Level FlightAware Approximate
08:30AM -21.4106 162.9549 234° Southwest  Level FlightAware Approximate
08:31AM -21.3366 163.0667 54° Northeast  Level Estimated
08:32AM -21.2614 163.1775 54° Northeast  Level FlightAware Approximate
08:33AM -21.1860 163.2882 54° Northeast  Level FlightAware Approximate
08:34AM -21.1105 163.3988 54° Northeast  Level FlightAware Approximate
08:35AM -21.0350 163.5092 54° Northeast  Level FlightAware Approximate
08:36AM -20.9594 163.6196 54° Northeast  Level FlightAware Approximate
08:37AM -20.8838 163.7298 54° Northeast  Level FlightAware Approximate
08:38AM -20.8081 163.8399 54° Northeast  Level FlightAware Approximate
08:39AM -20.7323 163.9499 54° Northeast  Level FlightAware Approximate
08:40AM -20.6564 164.0598 54° Northeast  Level FlightAware Approximate
08:41AM -20.5805 164.1696 54° Northeast  Level FlightAware Approximate
08:42AM -20.5045 164.2793 54° Northeast  Level FlightAware Approximate
08:43AM -20.4284 164.3888 53° Northeast  Level FlightAware Approximate
08:44AM -20.3523 164.4983 53° Northeast  Level FlightAware Approximate
08:45AM -20.2761 164.6076 53° Northeast  Level FlightAware Approximate
08:46AM -20.1998 164.7169 53° Northeast  Level FlightAware Approximate
08:47AM -20.1235 164.8260 53° Northeast  Level FlightAware Approximate
08:48AM -20.0471 164.9350 53° Northeast  Level FlightAware Approximate
08:49AM -19.9706 165.0440 53° Northeast  Level FlightAware Approximate
08:50AM -19.8940 165.1528 53° Northeast  Level FlightAware Approximate
08:51AM -19.8174 165.2615 53° Northeast  Level FlightAware Approximate
08:52AM -19.7407 165.3701 53° Northeast  Level FlightAware Approximate
08:53AM -19.6640 165.4786 53° Northeast  Level FlightAware Approximate
08:54AM -19.5872 165.5870 53° Northeast  Level FlightAware Approximate
08:55AM -19.5103 165.6953 53° Northeast  Level FlightAware Approximate
08:56AM -19.4334 165.8035 53° Northeast  Level FlightAware Approximate
08:57AM -19.3564 165.9116 53° Northeast  Level FlightAware Approximate
08:58AM -19.2793 166.0196 53° Northeast  Level FlightAware Approximate
08:59AM -19.2022 166.1275 53° Northeast  Level FlightAware Approximate
09:00AM -19.1250 166.2352 53° Northeast  Level FlightAware Approximate
09:01AM -19.0478 166.3429 53° Northeast  Level FlightAware Approximate
09:02AM -18.9704 166.4505 53° Northeast  Level FlightAware Approximate
09:03AM -18.8931 166.5580 53° Northeast  Level FlightAware Approximate
09:04AM -18.8156 166.6654 53° Northeast  Level FlightAware Approximate
09:05AM -18.7381 166.7727 53° Northeast  Level FlightAware Approximate
09:06AM -18.6606 166.8799 53° Northeast  Level FlightAware Approximate
09:07AM -18.5830 166.9870 53° Northeast  Level FlightAware Approximate
09:08AM -18.5053 167.0940 53° Northeast  Level FlightAware Approximate
09:09AM -18.4275 167.2009 53° Northeast  Level FlightAware Approximate
09:10AM -18.3497 167.3077 53° Northeast  Level FlightAware Approximate
09:11AM -18.2719 167.4144 52° Northeast  Level FlightAware Approximate
09:12AM -18.1940 167.5210 52° Northeast  Level FlightAware Approximate
09:13AM -18.1160 167.6275 52° Northeast  Level FlightAware Approximate
09:14AM -18.0379 167.7339 52° Northeast  Level FlightAware Approximate
09:15AM -17.9598 167.8402 52° Northeast  Level FlightAware Approximate
09:16AM -17.8817 167.9465 52° Northeast  Level FlightAware Approximate
09:17AM -17.8035 168.0526 52° Northeast  Level FlightAware Approximate
09:18AM -17.7252 168.1586 52° Northeast  Level FlightAware Approximate
09:19AM -17.6621 168.2439 54° Northeast  Level FlightAware Approximate
09:20AM -17.6993 168.3198 54° Northeast  Level Estimated
09:21AM -17.6993 168.3198 54° Northeast  Level Estimated
09:22AM -17.6993 168.3198 54° Northeast  Level Estimated
09:23AM -17.6993 168.3198 54° Northeast  Level Estimated
09:24AM -17.6993 168.3198 54° Northeast  Level Estimated
09:25AM -17.6993 168.3198 54° Northeast  Level Estimated
09:26AM -17.6993 168.3198 54° Northeast  Level Estimated
09:27AM -17.6993 168.3198 54° Northeast  Level Estimated
09:28AM -17.6993 168.3198 54° Northeast  Level Estimated